createdAt,value
2017-08-02T00:03:38.265Z,97258.83
2017-08-02T00:08:24.913Z,97256.21
2017-08-02T00:13:12.384Z,97269.20
2017-08-02T00:17:59.066Z,97281.94
2017-08-02T00:22:45.689Z,97278.38
2017-08-02T00:27:32.336Z,97292.64
2017-08-02T00:32:19.013Z,97270.29
2017-08-02T00:37:05.736Z,97264.70
2017-08-02T00:41:52.393Z,97262.08
2017-08-02T00:46:39.196Z,97273.18
2017-08-02T00:51:26.648Z,97295.18
2017-08-02T00:56:13.332Z,97318.90
2017-08-02T01:00:59.973Z,97351.94
2017-08-02T01:05:47.360Z,97375.78
2017-08-02T01:10:34.038Z,97363.42
2017-08-02T01:15:21.376Z,97359.38
2017-08-02T01:20:08.756Z,97356.98
2017-08-02T01:24:55.370Z,97374.50
2017-08-02T01:29:42.021Z,97385.33
2017-08-02T01:34:28.685Z,97380.67
2017-08-02T01:39:15.321Z,97374.91
2017-08-02T01:44:01.985Z,97386.32
2017-08-02T01:48:48.581Z,97369.52
2017-08-02T01:53:35.200Z,97390.19
2017-08-02T01:58:21.821Z,97386.00
2017-08-02T02:03:08.452Z,97387.78
2017-08-02T02:07:55.077Z,97373.30
2017-08-02T02:12:41.713Z,97385.58
2017-08-02T02:17:28.312Z,97366.81
2017-08-02T02:22:14.945Z,97363.48
2017-08-02T02:27:01.658Z,97369.97
2017-08-02T02:31:48.335Z,97384.30
2017-08-02T02:36:35.319Z,97393.31
2017-08-02T02:41:21.967Z,97405.06
2017-08-02T02:46:09.434Z,97430.06
2017-08-02T02:50:56.118Z,97422.88
2017-08-02T02:55:43.506Z,97424.67
2017-08-02T03:00:30.117Z,97451.14
2017-08-02T03:05:16.807Z,97461.28
2017-08-02T03:10:04.165Z,97472.06
2017-08-02T03:14:50.777Z,97555.76
2017-08-02T03:19:37.405Z,97565.91
2017-08-02T03:24:24.040Z,97586.35
2017-08-02T03:29:10.666Z,97618.50
2017-08-02T03:33:57.308Z,97626.03
2017-08-02T03:38:43.938Z,97631.78
2017-08-02T03:43:30.580Z,97648.52
2017-08-02T03:48:17.971Z,97653.91
2017-08-02T03:53:04.737Z,97626.78
2017-08-02T03:57:51.667Z,97624.13
2017-08-02T04:02:39.246Z,97613.05
2017-08-02T04:07:25.861Z,97612.27
2017-08-02T04:12:12.499Z,97621.78
2017-08-02T04:16:59.164Z,97603.48
2017-08-02T04:21:46.542Z,97621.41
2017-08-02T04:26:33.209Z,97613.19
2017-08-02T04:31:19.820Z,97561.31
2017-08-02T04:36:06.425Z,97515.47
2017-08-02T04:40:53.130Z,97485.66
2017-08-02T04:45:39.830Z,97518.70
2017-08-02T04:50:26.536Z,97522.88
2017-08-02T04:55:13.920Z,97535.19
2017-08-02T05:00:00.668Z,97520.63
2017-08-02T05:04:47.314Z,97529.37
2017-08-02T05:09:34.691Z,97526.70
2017-08-02T05:14:21.323Z,97522.69
2017-08-02T05:19:07.972Z,97519.31
2017-08-02T05:23:54.614Z,97541.05
2017-08-02T05:28:42.003Z,97536.43
2017-08-02T05:33:28.691Z,97514.77
2017-08-02T05:38:15.315Z,97513.79
2017-08-02T05:43:02.031Z,97514.26
2017-08-02T05:47:48.750Z,97517.70
2017-08-02T05:52:35.375Z,97528.50
2017-08-02T05:57:22.274Z,97527.47
2017-08-02T06:02:09.619Z,97526.44
2017-08-02T06:06:56.984Z,97533.67
2017-08-02T06:11:43.597Z,97536.80
2017-08-02T06:16:30.287Z,97555.00
2017-08-02T06:21:17.690Z,97541.05
2017-08-02T06:26:04.339Z,97533.89
2017-08-02T06:30:50.972Z,97539.30
2017-08-02T06:35:38.357Z,97533.61
2017-08-02T06:40:24.987Z,97536.45
2017-08-02T06:45:18.758Z,97537.20
2017-08-02T06:50:05.395Z,97532.60
2017-08-02T06:54:52.002Z,97532.41
2017-08-02T06:59:38.624Z,97522.59
2017-08-02T07:04:25.268Z,97520.06
2017-08-02T07:09:11.882Z,97539.59
2017-08-02T07:13:58.514Z,97540.36
2017-08-02T07:18:45.162Z,97538.25
2017-08-02T07:23:32.528Z,97534.95
2017-08-02T07:28:19.177Z,97551.66
2017-08-02T07:33:05.816Z,97556.80
2017-08-02T07:37:52.435Z,97544.11
2017-08-02T07:42:39.193Z,97544.70
2017-08-02T07:47:25.833Z,97533.44
2017-08-02T07:52:12.523Z,97540.55
2017-08-02T07:56:59.208Z,97530.64
2017-08-02T08:01:45.825Z,97521.31
2017-08-02T08:06:32.460Z,97520.46
2017-08-02T08:11:19.088Z,97516.47
2017-08-02T08:16:05.696Z,97510.14
2017-08-02T08:20:52.337Z,97508.55
2017-08-02T08:25:39.687Z,97506.52
2017-08-02T08:30:27.041Z,97495.73
2017-08-02T08:35:13.851Z,97498.45
2017-08-02T08:40:00.534Z,97496.20
2017-08-02T08:44:47.216Z,97489.66
2017-08-02T08:49:33.869Z,97486.50
2017-08-02T08:54:20.494Z,97481.68
2017-08-02T08:59:07.177Z,97478.57
2017-08-02T09:03:53.793Z,97479.09
2017-08-02T09:08:40.450Z,97482.39
2017-08-02T09:13:27.112Z,97500.91
2017-08-02T09:18:14.484Z,97496.70
2017-08-02T09:23:01.150Z,97504.80
2017-08-02T09:27:48.546Z,97493.72
2017-08-02T09:32:35.185Z,97493.66
2017-08-02T09:37:21.850Z,97481.12
2017-08-02T09:42:08.450Z,97477.08
2017-08-02T09:46:55.828Z,97477.38
2017-08-02T09:51:42.505Z,97483.73
2017-08-02T09:56:29.149Z,97492.68
2017-08-02T10:01:15.806Z,97504.80
2017-08-02T10:06:02.471Z,97507.15
2017-08-02T10:10:49.178Z,97502.17
2017-08-02T10:15:36.110Z,97499.01
2017-08-02T10:20:22.751Z,97501.34
2017-08-02T10:25:10.139Z,97487.08
2017-08-02T10:29:56.762Z,97480.13
2017-08-02T10:34:43.403Z,97479.39
2017-08-02T10:39:30.084Z,97487.34
2017-08-02T10:44:16.727Z,97497.07
2017-08-02T10:49:03.370Z,97504.84
2017-08-02T10:53:50.011Z,97488.99
2017-08-02T10:58:36.651Z,97469.66
2017-08-02T11:03:23.341Z,97439.16
2017-08-02T11:08:10.758Z,97441.22
2017-08-02T11:12:57.464Z,97443.44
2017-08-02T11:17:44.145Z,97445.16
2017-08-02T11:22:30.783Z,97447.78
2017-08-02T11:27:17.420Z,97458.52
2017-08-02T11:32:04.085Z,97461.70
2017-08-02T11:36:50.856Z,97452.12
2017-08-02T11:41:37.484Z,97454.38
2017-08-02T11:46:24.214Z,97446.69
2017-08-02T11:51:10.865Z,97447.43
2017-08-02T11:55:57.504Z,97440.25
2017-08-02T12:00:44.878Z,97445.22
2017-08-02T12:05:31.496Z,97446.13
2017-08-02T12:10:18.177Z,97437.45
2017-08-02T12:15:05.569Z,97419.86
2017-08-02T12:19:52.370Z,97417.13
2017-08-02T12:24:39.075Z,97415.59
2017-08-02T12:29:25.801Z,97402.45
2017-08-02T12:34:12.424Z,97397.55
2017-08-02T12:38:59.307Z,97402.87
2017-08-02T12:43:46.026Z,97402.45
2017-08-02T12:48:32.645Z,97408.36
2017-08-02T12:53:19.284Z,97395.77
2017-08-02T12:58:06.659Z,97391.23
2017-08-02T13:02:53.358Z,97395.53
2017-08-02T13:07:39.988Z,97395.50
2017-08-02T13:12:26.637Z,97395.25
2017-08-02T13:17:13.311Z,97403.80
2017-08-02T13:21:59.954Z,97393.16
2017-08-02T13:26:46.614Z,97384.38
2017-08-02T13:31:33.233Z,97370.58
2017-08-02T13:36:19.903Z,97375.73
2017-08-02T13:41:06.522Z,97383.17
2017-08-02T13:45:53.164Z,97382.70
2017-08-02T13:50:39.819Z,97378.36
2017-08-02T13:55:26.556Z,97377.62
2017-08-02T14:00:13.310Z,97385.00
2017-08-02T14:05:00.036Z,97374.95
2017-08-02T14:09:46.726Z,97367.24
2017-08-02T14:14:33.275Z,97363.80
2017-08-02T14:19:19.890Z,97365.02
2017-08-02T14:24:07.244Z,97365.52
2017-08-02T14:28:53.874Z,97345.11
2017-08-02T14:33:40.582Z,97347.97
2017-08-02T14:38:27.251Z,97343.17
2017-08-02T14:43:13.950Z,97339.57
2017-08-02T14:48:00.574Z,97344.11
2017-08-02T14:52:47.188Z,97340.23
2017-08-02T14:57:33.831Z,97340.20
2017-08-02T15:02:20.678Z,97334.09
2017-08-02T15:07:08.074Z,97335.30
2017-08-02T15:11:54.718Z,97336.92
2017-08-02T15:16:42.131Z,97324.39
2017-08-02T15:21:28.766Z,97326.30
2017-08-02T15:26:15.395Z,97323.08
2017-08-02T15:31:02.018Z,97313.31
2017-08-02T15:35:50.231Z,97299.15
2017-08-02T15:40:36.934Z,97297.08
2017-08-02T15:45:23.590Z,97293.91
2017-08-02T15:50:10.421Z,97286.09
2017-08-02T15:54:57.056Z,97276.36
2017-08-02T15:59:43.678Z,97269.89
2017-08-02T16:04:30.606Z,97274.53
2017-08-02T16:09:17.247Z,97277.83
2017-08-02T16:14:03.841Z,97276.34
2017-08-02T16:18:50.474Z,97270.81
2017-08-02T16:23:37.106Z,97266.42
2017-08-02T16:28:23.879Z,97260.34
2017-08-02T16:33:10.552Z,97258.49
2017-08-02T16:37:57.936Z,97256.91
2017-08-02T16:42:44.563Z,97244.73
2017-08-02T16:47:31.211Z,97242.55
2017-08-02T16:52:17.857Z,97241.69
2017-08-02T16:57:04.545Z,97257.91
2017-08-02T17:01:51.288Z,97256.06
2017-08-02T17:06:38.020Z,97244.79
2017-08-02T17:11:29.625Z,97244.20
2017-08-02T17:16:16.283Z,97254.50
2017-08-02T17:21:03.733Z,97246.28
2017-08-02T17:25:50.351Z,97251.59
2017-08-02T17:30:37.015Z,97254.01
2017-08-02T17:35:23.653Z,97261.41
2017-08-02T17:40:10.380Z,97257.53
2017-08-02T17:44:57.034Z,97260.48
2017-08-02T17:49:43.745Z,97263.23
2017-08-02T17:54:31.214Z,97262.44
2017-08-02T17:59:17.857Z,97262.86
2017-08-02T18:04:04.514Z,97273.44
2017-08-02T18:08:51.922Z,97276.47
2017-08-02T18:13:38.546Z,97280.30
2017-08-02T18:18:25.237Z,97281.65
2017-08-02T18:23:11.983Z,97282.85
2017-08-02T18:27:58.945Z,97293.33
2017-08-02T18:32:46.372Z,97294.97
2017-08-02T18:37:33.855Z,97293.84
2017-08-02T18:42:20.541Z,97294.22
2017-08-02T18:47:08.054Z,97296.93
2017-08-02T18:51:55.031Z,97298.01
2017-08-02T18:56:41.660Z,97299.66
2017-08-02T19:01:28.368Z,97307.84
2017-08-02T19:06:15.952Z,97310.16
2017-08-02T19:11:02.614Z,97329.08
2017-08-02T19:15:49.289Z,97319.48
2017-08-02T19:20:36.006Z,97331.45
2017-08-02T19:25:22.638Z,97338.64
2017-08-02T19:30:09.352Z,97340.08
2017-08-02T19:34:56.028Z,97336.50
2017-08-02T19:39:43.410Z,97338.14
2017-08-02T19:44:30.089Z,97334.94
2017-08-02T19:49:17.557Z,97328.05
2017-08-02T19:54:04.315Z,97333.28
2017-08-02T19:58:51.027Z,97328.05
2017-08-02T20:03:37.726Z,97326.16
2017-08-02T20:08:24.364Z,97326.66
2017-08-02T20:13:11.018Z,97321.75
2017-08-02T20:17:57.665Z,97325.11
2017-08-02T20:22:45.039Z,97327.22
2017-08-02T20:27:31.684Z,97332.45
2017-08-02T20:32:18.316Z,97330.72
2017-08-02T20:37:04.962Z,97324.83
2017-08-02T20:41:52.468Z,97329.33
2017-08-02T20:46:39.146Z,97331.33
2017-08-02T20:51:25.788Z,97337.56
2017-08-02T20:56:12.547Z,97326.02
2017-08-02T21:00:59.257Z,97325.45
2017-08-02T21:05:45.917Z,97324.87
2017-08-02T21:10:32.618Z,97318.69
2017-08-02T21:15:19.967Z,97321.73
2017-08-02T21:20:07.354Z,97326.22
2017-08-02T21:24:53.990Z,97327.27
2017-08-02T21:29:40.621Z,97327.69
2017-08-02T21:34:27.325Z,97329.65
2017-08-02T21:39:14.020Z,97328.84
2017-08-02T21:44:00.795Z,97323.00
2017-08-02T21:48:47.451Z,97339.95
2017-08-02T21:53:34.156Z,97337.52
2017-08-02T21:58:21.543Z,97342.25
2017-08-02T22:03:08.196Z,97339.87
2017-08-02T22:07:54.844Z,97340.77
2017-08-02T22:12:41.480Z,97344.55
2017-08-02T22:17:28.067Z,97343.41
2017-08-02T22:22:15.459Z,97344.19
2017-08-02T22:27:02.125Z,97341.92
2017-08-02T22:31:49.468Z,97344.55
2017-08-02T22:36:36.858Z,97346.07
2017-08-02T22:41:24.269Z,97340.63
2017-08-02T22:46:11.065Z,97337.69
2017-08-02T22:50:58.477Z,97332.77
2017-08-02T22:55:45.106Z,97334.13
2017-08-02T23:00:32.160Z,97339.92
2017-08-02T23:05:18.887Z,97340.84
2017-08-02T23:10:05.775Z,97342.97
2017-08-02T23:14:52.448Z,97337.19
2017-08-02T23:19:39.167Z,97331.81
2017-08-02T23:24:26.217Z,97319.61
2017-08-02T23:29:12.996Z,97315.69
2017-08-02T23:34:00.372Z,97308.02
2017-08-02T23:38:47.111Z,97308.77
2017-08-02T23:43:33.722Z,97307.36
2017-08-02T23:48:20.363Z,97308.72
2017-08-02T23:53:06.991Z,97310.87
2017-08-02T23:57:53.588Z,97301.29
